Framingham Center, Massachusetts
Current Conditions -  °F | °C
As of 6:56 AM on Saturday 25 Oct 2014 (Local Time) from KBED Reporting Station
Clear Clear  
Wind Chill: 36°   Ceiling: Unl
Heat Index: 40°   Visibility: 10mi
Dew Point: 38°   Wind: 6mph
Humidity: 93%   Direction: 240°WSW
Pressure: 29.75"   Gusts: NA
Location:  42.3203°N, 71.4404°W
Report Text: KBED 251056Z AUTO 24005KT 10SM CLR 04/03 A2975 RMK AO2 SLP087 T00440033 TSNO
Loading
Personal Weather Stations






























Interactive Weather Map
Tropical Storm Tracking
New forecast layout! Learn more

10-Day Weather Forecast

Advertisements
Track Severe Weather on mobile